Time;durP1;ratioP1;P1;durP2;ratioP2;P2;SDS_P1;SDS_P2;PMS_P1;PMS_P2;Temp;Humidity;BMP_temperature;BMP_pressure;BME280_temperature;BME280_humidity;BME280_pressure;Samples;Min_cycle;Max_cycle;Signal;HPM_P1;HPM_P2
2023/06/07 00:00:06;;;;;;;5.32;2.47;;;16.80;99.90;;;;;;5094411;28;20253;-64
2023/06/07 00:02:36;;;;;;;4.57;2.28;;;16.80;99.90;;;;;;5094080;28;20262;-63
2023/06/07 00:05:12;;;;;;;3.67;2.38;;;16.80;99.90;;;;;;5093494;28;20576;-63
2023/06/07 00:07:41;;;;;;;6.43;2.80;;;16.80;99.90;;;;;;5093315;28;20226;-64
2023/06/07 00:10:09;;;;;;;3.65;2.40;;;16.80;99.90;;;;;;5093573;28;20540;-64
2023/06/07 00:12:37;;;;;;;2.53;2.33;;;16.80;99.90;;;;;;5094184;28;20313;-64
2023/06/07 00:15:07;;;;;;;3.38;2.03;;;16.80;99.90;;;;;;5093671;28;20228;-63
2023/06/07 00:17:40;;;;;;;3.78;2.50;;;16.70;99.90;;;;;;5094151;28;20208;-63
2023/06/07 00:20:12;;;;;;;5.60;2.22;;;16.80;99.90;;;;;;5094084;28;20275;-61
2023/06/07 00:22:41;;;;;;;3.28;1.92;;;16.80;99.90;;;;;;5094369;28;20280;-64
2023/06/07 00:25:09;;;;;;;4.93;2.30;;;16.80;99.90;;;;;;5094844;28;20200;-63
2023/06/07 00:27:37;;;;;;;2.15;1.98;;;16.80;99.90;;;;;;5095643;28;20436;-63
2023/06/07 00:30:07;;;;;;;2.75;2.35;;;16.80;99.90;;;;;;5095388;28;20211;-63
2023/06/07 00:32:36;;;;;;;10.40;2.78;;;16.80;99.90;;;;;;5096283;28;20242;-64
2023/06/07 00:35:07;;;;;;;5.78;2.88;;;16.80;99.90;;;;;;5095295;28;20790;-63
2023/06/07 00:37:34;;;;;;;7.85;2.67;;;16.90;99.90;;;;;;5096007;28;20204;-64
2023/06/07 00:40:03;;;;;;;3.42;2.28;;;16.90;99.90;;;;;;5096125;28;20200;-63
2023/06/07 00:42:32;;;;;;;4.28;2.20;;;16.90;99.90;;;;;;5091762;28;20312;-61
2023/06/07 00:45:00;;;;;;;5.43;2.58;;;16.80;99.90;;;;;;5075826;28;20215;-62
2023/06/07 00:47:28;;;;;;;3.13;2.50;;;16.80;99.90;;;;;;5075556;28;20262;-62
2023/06/07 00:49:57;;;;;;;2.80;2.60;;;16.80;99.90;;;;;;5075020;28;20243;-61
2023/06/07 00:52:25;;;;;;;2.95;2.58;;;16.80;99.90;;;;;;5075599;28;20205;-63
2023/06/07 00:54:53;;;;;;;3.00;2.40;;;16.80;99.90;;;;;;5075693;28;20204;-63
2023/06/07 00:57:21;;;;;;;3.30;2.13;;;16.80;99.90;;;;;;5075676;28;20205;-63
2023/06/07 00:59:48;;;;;;;3.20;2.83;;;16.80;99.90;;;;;;5075298;28;20225;-64
2023/06/07 01:02:17;;;;;;;3.85;2.42;;;16.80;99.90;;;;;;5075723;28;20224;-63
2023/06/07 01:04:45;;;;;;;3.95;2.72;;;16.80;99.90;;;;;;5075478;28;20205;-64
2023/06/07 01:07:17;;;;;;;5.97;2.83;;;16.90;99.90;;;;;;5075586;28;20322;-63
2023/06/07 01:09:45;;;;;;;3.10;2.80;;;16.90;99.90;;;;;;5076257;28;20221;-63
2023/06/07 01:12:14;;;;;;;4.70;2.67;;;16.80;99.90;;;;;;5075514;28;20209;-63
2023/06/07 01:14:42;;;;;;;2.65;2.28;;;16.80;99.90;;;;;;5076047;28;20235;-61
2023/06/07 01:17:12;;;;;;;3.55;2.63;;;16.80;99.90;;;;;;5076132;28;20208;-64
2023/06/07 01:19:42;;;;;;;2.78;2.58;;;16.80;99.90;;;;;;5076360;28;20232;-61
2023/06/07 01:22:10;;;;;;;2.90;2.70;;;16.80;99.90;;;;;;5075789;28;20263;-64
2023/06/07 01:24:42;;;;;;;3.88;2.97;;;16.80;99.90;;;;;;5075401;28;20243;-64
2023/06/07 01:27:11;;;;;;;3.67;2.42;;;16.80;99.90;;;;;;5076258;28;20287;-63
2023/06/07 01:29:38;;;;;;;3.53;2.60;;;16.80;99.90;;;;;;5075641;28;20755;-62
2023/06/07 01:32:09;;;;;;;2.78;2.60;;;16.80;99.90;;;;;;5076183;28;20283;-63
2023/06/07 01:34:36;;;;;;;3.38;2.75;;;16.80;99.90;;;;;;5075929;28;20209;-63
2023/06/07 01:37:05;;;;;;;3.00;2.80;;;16.80;99.90;;;;;;5075904;28;20255;-64
2023/06/07 01:39:33;;;;;;;4.07;2.70;;;16.80;99.90;;;;;;5075305;28;20256;-62
2023/06/07 01:42:02;;;;;;;7.20;2.58;;;16.70;99.90;;;;;;5075753;28;20549;-64
2023/06/07 01:44:30;;;;;;;5.78;2.60;;;16.70;99.90;;;;;;5076216;28;20244;-59
2023/06/07 01:46:58;;;;;;;10.38;3.13;;;16.70;99.90;;;;;;5076173;28;20208;-63
2023/06/07 01:49:26;;;;;;;3.05;2.75;;;16.70;99.90;;;;;;5079423;28;20255;-63
2023/06/07 01:51:54;;;;;;;3.45;2.70;;;16.70;99.90;;;;;;5079415;28;20587;-63
2023/06/07 01:54:21;;;;;;;3.00;2.70;;;16.80;99.90;;;;;;5079824;28;20283;-62
2023/06/07 01:56:55;;;;;;;4.95;2.95;;;16.80;99.90;;;;;;5079597;28;20669;-62
2023/06/07 01:59:28;;;;;;;4.50;3.10;;;16.80;99.90;;;;;;5078541;28;20256;-63
2023/06/07 02:02:08;;;;;;;3.75;3.40;;;16.80;99.90;;;;;;5078344;28;20286;-63
2023/06/07 02:04:37;;;;;;;3.55;2.60;;;16.70;99.90;;;;;;5077676;28;20232;-59
2023/06/07 02:07:06;;;;;;;4.13;2.55;;;16.70;99.90;;;;;;5078263;28;20635;-63
2023/06/07 02:09:35;;;;;;;3.47;2.78;;;16.70;99.90;;;;;;5093350;28;20255;-63
2023/06/07 02:12:03;;;;;;;2.60;2.40;;;16.70;99.90;;;;;;5099151;28;20211;-64
2023/06/07 02:14:32;;;;;;;3.13;2.83;;;16.70;99.90;;;;;;5099080;28;20208;-62
2023/06/07 02:17:00;;;;;;;5.15;2.80;;;16.70;99.90;;;;;;5098437;28;20208;-61
2023/06/07 02:19:28;;;;;;;3.65;2.83;;;16.70;99.90;;;;;;5099592;28;20251;-63
2023/06/07 02:21:56;;;;;;;2.53;2.33;;;16.70;99.90;;;;;;5098533;28;20224;-63
2023/06/07 02:24:25;;;;;;;2.78;2.60;;;16.70;99.90;;;;;;5098846;28;20204;-64
2023/06/07 02:26:53;;;;;;;7.80;2.97;;;16.70;99.90;;;;;;5098331;28;20212;-64
2023/06/07 02:29:21;;;;;;;3.58;3.03;;;16.60;99.90;;;;;;5097877;28;20227;-61
2023/06/07 02:31:52;;;;;;;4.32;2.88;;;16.50;99.90;;;;;;5098649;28;20200;-63
2023/06/07 02:34:21;;;;;;;3.33;3.13;;;16.50;99.90;;;;;;5098479;28;20208;-64
2023/06/07 02:36:49;;;;;;;2.72;2.53;;;16.50;99.90;;;;;;5098242;28;20239;-62
2023/06/07 02:39:17;;;;;;;3.78;3.00;;;16.40;99.90;;;;;;5097517;28;20296;-62
2023/06/07 02:41:44;;;;;;;6.32;3.20;;;16.40;99.90;;;;;;5097246;28;20231;-63
2023/06/07 02:44:12;;;;;;;3.22;2.45;;;16.40;99.90;;;;;;5079109;28;20304;-63
2023/06/07 02:46:40;;;;;;;3.13;2.92;;;16.40;99.90;;;;;;5076740;28;20239;-64
2023/06/07 02:49:10;;;;;;;5.90;2.92;;;16.30;99.90;;;;;;5076875;28;20234;-62
2023/06/07 02:51:38;;;;;;;9.55;2.70;;;16.30;99.90;;;;;;5076124;28;20315;-62
2023/06/07 02:54:09;;;;;;;9.93;2.58;;;16.30;99.90;;;;;;5076291;28;20204;-63
2023/06/07 02:56:37;;;;;;;7.97;3.20;;;16.20;99.90;;;;;;5075645;28;20209;-63
2023/06/07 02:59:05;;;;;;;3.90;2.85;;;16.20;99.90;;;;;;5076898;28;20224;-63
2023/06/07 03:01:34;;;;;;;5.22;3.13;;;16.10;99.90;;;;;;5076163;28;20204;-63
2023/06/07 03:04:02;;;;;;;7.07;3.38;;;16.10;99.90;;;;;;5092072;28;20220;-64
2023/06/07 03:06:32;;;;;;;4.28;2.70;;;16.00;99.90;;;;;;5091321;28;20580;-64
2023/06/07 03:09:00;;;;;;;6.25;3.03;;;15.90;99.90;;;;;;5087864;28;20250;-63
2023/06/07 03:11:28;;;;;;;2.80;2.65;;;15.90;99.90;;;;;;5087575;28;20200;-63
2023/06/07 03:13:56;;;;;;;5.35;2.90;;;15.90;99.90;;;;;;5096518;28;20227;-61
2023/06/07 03:16:23;;;;;;;4.18;2.70;;;15.90;99.90;;;;;;5096139;28;20888;-63
2023/06/07 03:18:52;;;;;;;5.78;3.20;;;15.90;99.90;;;;;;5095924;28;20247;-63
2023/06/07 03:21:20;;;;;;;6.63;3.03;;;15.90;99.90;;;;;;5095362;28;20204;-62
2023/06/07 03:23:49;;;;;;;2.97;2.78;;;15.80;99.90;;;;;;5095954;28;20818;-63
2023/06/07 03:26:18;;;;;;;3.70;3.03;;;15.80;99.90;;;;;;5096081;28;20200;-63
2023/06/07 03:28:45;;;;;;;7.22;3.15;;;15.80;99.90;;;;;;5095210;28;20650;-63
2023/06/07 03:31:13;;;;;;;6.93;2.78;;;15.70;99.90;;;;;;5093717;28;20578;-58
2023/06/07 03:33:41;;;;;;;6.15;3.25;;;15.70;99.90;;;;;;5093446;28;20261;-58
2023/06/07 03:36:09;;;;;;;4.82;3.28;;;15.60;99.90;;;;;;5087862;28;20254;-58
2023/06/07 03:38:37;;;;;;;7.47;3.13;;;15.60;99.90;;;;;;5090088;28;20663;-60
2023/06/07 03:41:06;;;;;;;5.90;3.40;;;15.60;99.90;;;;;;5093459;28;20231;-61
2023/06/07 03:43:34;;;;;;;5.40;3.13;;;15.60;99.90;;;;;;5093125;28;20273;-58
2023/06/07 03:46:02;;;;;;;9.85;3.45;;;15.60;99.90;;;;;;5092836;28;20204;-58
2023/06/07 03:48:30;;;;;;;9.05;3.47;;;15.60;99.90;;;;;;5092796;28;20271;-58
2023/06/07 03:50:58;;;;;;;3.30;2.83;;;15.50;99.90;;;;;;5093237;28;20206;-56
2023/06/07 03:53:26;;;;;;;5.25;3.25;;;15.50;99.90;;;;;;5093087;28;20244;-59
2023/06/07 03:55:55;;;;;;;4.75;3.30;;;15.60;99.90;;;;;;5092979;28;20261;-58
2023/06/07 03:58:24;;;;;;;3.25;3.05;;;15.60;99.90;;;;;;5092824;28;20221;-60
2023/06/07 04:00:53;;;;;;;3.55;3.15;;;15.60;99.90;;;;;;5092887;28;20204;-58
2023/06/07 04:03:24;;;;;;;10.00;3.00;;;15.60;99.90;;;;;;5092582;28;20273;-59
2023/06/07 04:05:52;;;;;;;5.95;3.38;;;15.60;99.90;;;;;;5092735;28;20205;-58
2023/06/07 04:08:20;;;;;;;6.10;3.03;;;15.60;99.90;;;;;;5092737;28;20220;-60
2023/06/07 04:10:48;;;;;;;5.57;3.42;;;15.60;99.90;;;;;;5092038;28;20287;-61
2023/06/07 04:13:16;;;;;;;6.75;3.20;;;15.70;99.90;;;;;;5091328;28;20231;-61
2023/06/07 04:15:45;;;;;;;3.05;2.85;;;15.70;99.90;;;;;;5083469;28;20288;-61
2023/06/07 04:18:13;;;;;;;11.70;3.63;;;15.70;99.90;;;;;;5092227;28;20281;-59
2023/06/07 04:20:41;;;;;;;4.63;3.13;;;15.80;99.90;;;;;;5092702;28;20630;-58
2023/06/07 04:23:10;;;;;;;3.15;2.95;;;15.90;99.90;;;;;;5091950;28;20252;-58
2023/06/07 04:25:39;;;;;;;2.88;2.20;;;16.00;99.90;;;;;;5092082;28;20265;-62
2023/06/07 04:28:08;;;;;;;4.95;2.03;;;16.10;99.90;;;;;;5091870;28;20307;-61
2023/06/07 04:30:36;;;;;;;2.65;2.45;;;16.50;99.90;;;;;;5091936;28;20716;-61
2023/06/07 04:33:08;;;;;;;3.50;2.70;;;17.00;99.90;;;;;;5092176;28;20199;-62
2023/06/07 04:35:36;;;;;;;2.67;2.55;;;17.40;99.90;;;;;;5091782;28;20208;-61
2023/06/07 04:38:04;;;;;;;5.07;2.90;;;17.70;99.90;;;;;;5091807;28;20288;-62
2023/06/07 04:40:32;;;;;;;4.57;2.97;;;18.00;99.90;;;;;;5091749;28;20239;-62
2023/06/07 04:43:04;;;;;;;2.90;2.70;;;18.20;99.90;;;;;;5084116;28;20232;-61
2023/06/07 04:45:33;;;;;;;4.22;3.25;;;18.30;99.90;;;;;;5071769;28;20189;-62
2023/06/07 04:48:01;;;;;;;7.63;3.13;;;18.50;99.90;;;;;;5071559;28;20319;-62
2023/06/07 04:50:31;;;;;;;3.15;2.95;;;18.60;99.90;;;;;;5071715;28;20211;-62
2023/06/07 04:53:02;;;;;;;6.70;3.17;;;18.70;99.90;;;;;;5076859;28;20220;-63
2023/06/07 04:55:31;;;;;;;5.78;2.63;;;18.80;99.90;;;;;;5091259;28;20243;-62
2023/06/07 04:57:59;;;;;;;3.25;2.95;;;18.90;99.90;;;;;;5090931;28;20228;-62
2023/06/07 05:00:28;;;;;;;3.17;2.88;;;18.90;99.90;;;;;;5087296;28;20196;-63
2023/06/07 05:02:56;;;;;;;6.15;3.35;;;18.90;99.90;;;;;;5091832;28;20211;-62
2023/06/07 05:05:24;;;;;;;3.88;3.10;;;18.80;99.90;;;;;;5083501;28;20196;-62
2023/06/07 05:07:55;;;;;;;6.28;3.33;;;18.80;99.90;;;;;;5087595;28;20295;-63
2023/06/07 05:10:22;;;;;;;2.80;2.58;;;18.70;99.90;;;;;;5083137;28;20224;-62
2023/06/07 05:12:50;;;;;;;3.80;3.40;;;18.70;99.90;;;;;;5091774;28;20258;-63
2023/06/07 05:15:21;;;;;;;5.22;3.28;;;18.70;99.90;;;;;;5091465;28;20269;-63
2023/06/07 05:17:49;;;;;;;5.35;3.28;;;18.60;99.90;;;;;;5093508;28;20207;-56
2023/06/07 05:20:17;;;;;;;4.22;2.63;;;18.50;99.90;;;;;;5094076;28;20203;-54
2023/06/07 05:22:45;;;;;;;5.18;2.65;;;18.50;99.90;;;;;;5098022;28;20277;-57
2023/06/07 05:25:15;;;;;;;8.40;3.53;;;18.40;99.90;;;;;;5098765;28;20254;-56
2023/06/07 05:27:43;;;;;;;3.00;2.70;;;18.50;99.90;;;;;;5093839;28;20228;-60
2023/06/07 05:30:11;;;;;;;7.38;3.15;;;18.60;99.90;;;;;;5098112;28;20199;-56
2023/06/07 05:32:40;;;;;;;3.50;2.92;;;18.60;99.90;;;;;;5088655;28;20193;-57
2023/06/07 05:35:09;;;;;;;6.97;3.20;;;18.70;99.90;;;;;;5098038;28;20203;-60
2023/06/07 05:37:36;;;;;;;4.60;3.03;;;18.80;99.90;;;;;;5098729;28;20247;-58
2023/06/07 05:40:08;;;;;;;5.30;3.38;;;18.80;99.90;;;;;;5098619;28;20230;-57
2023/06/07 05:42:38;;;;;;;7.90;3.33;;;18.90;99.90;;;;;;5093676;28;20558;-55
2023/06/07 05:45:07;;;;;;;9.70;3.08;;;19.00;99.90;;;;;;5077930;28;20224;-56
2023/06/07 05:47:35;;;;;;;5.07;2.97;;;19.10;99.90;;;;;;5078132;28;20208;-58
2023/06/07 05:50:04;;;;;;;3.50;3.25;;;19.10;99.90;;;;;;5116051;22;20232;-60
2023/06/07 05:52:32;;;;;;;3.28;2.75;;;19.20;99.90;;;;;;5095503;28;20200;-59
2023/06/07 05:55:01;;;;;;;5.53;2.90;;;19.20;99.90;;;;;;5085056;28;20216;-60
2023/06/07 05:57:30;;;;;;;5.20;3.20;;;19.30;99.90;;;;;;5083374;28;20227;-60
2023/06/07 05:59:59;;;;;;;8.77;3.58;;;19.30;99.90;;;;;;5074903;28;20221;-60
2023/06/07 06:02:29;;;;;;;4.80;3.67;;;19.30;99.90;;;;;;5074956;28;20251;-59
2023/06/07 06:04:58;;;;;;;5.80;3.05;;;19.30;99.90;;;;;;5073078;28;20224;-58
2023/06/07 06:07:26;;;;;;;8.48;3.30;;;19.30;99.90;;;;;;5074149;28;20211;-66
2023/06/07 06:09:54;;;;;;;6.90;3.83;;;19.30;99.90;;;;;;5074657;28;20261;-66
2023/06/07 06:12:22;;;;;;;5.30;3.88;;;19.40;99.90;;;;;;5074522;28;20208;-65
2023/06/07 06:14:50;;;;;;;4.60;3.78;;;19.30;99.90;;;;;;5074338;28;20200;-66
2023/06/07 06:17:19;;;;;;;6.00;3.75;;;19.30;99.90;;;;;;5074658;28;20232;-65
2023/06/07 06:19:47;;;;;;;4.82;4.10;;;19.30;99.90;;;;;;5074775;28;20311;-65
2023/06/07 06:22:17;;;;;;;8.52;3.53;;;19.30;99.90;;;;;;5074651;28;20666;-66
2023/06/07 06:24:45;;;;;;;11.90;3.83;;;19.30;99.90;;;;;;5074273;28;20665;-65
2023/06/07 06:27:13;;;;;;;12.15;4.43;;;19.20;99.90;;;;;;5074618;28;20243;-65
2023/06/07 06:29:41;;;;;;;9.15;3.45;;;19.20;99.90;;;;;;5074500;28;20279;-65
2023/06/07 06:32:09;;;;;;;8.07;3.88;;;19.10;99.90;;;;;;5074476;28;20254;-65
2023/06/07 06:34:39;;;;;;;7.05;3.97;;;19.10;99.90;;;;;;5073736;28;20201;-65
2023/06/07 06:37:07;;;;;;;5.47;3.72;;;19.10;99.90;;;;;;5074227;28;20251;-65
2023/06/07 06:39:35;;;;;;;8.68;3.65;;;19.10;99.90;;;;;;5074186;28;20233;-65
2023/06/07 06:42:03;;;;;;;8.25;3.80;;;19.00;99.90;;;;;;5074316;28;20232;-65
2023/06/07 06:44:30;;;;;;;3.10;2.85;;;19.00;99.90;;;;;;5053877;28;20256;-65
2023/06/07 06:46:58;;;;;;;5.45;3.42;;;19.00;99.90;;;;;;5054091;28;20296;-66
2023/06/07 06:49:26;;;;;;;3.95;3.45;;;19.10;99.90;;;;;;5068349;28;20294;-66
2023/06/07 06:51:55;;;;;;;4.78;3.35;;;19.20;99.90;;;;;;5071899;28;20209;-66
2023/06/07 06:54:23;;;;;;;5.32;3.50;;;19.30;99.90;;;;;;5074072;28;20207;-65
2023/06/07 06:56:51;;;;;;;8.00;3.38;;;19.30;99.90;;;;;;5073841;28;20668;-65
2023/06/07 06:59:19;;;;;;;4.07;3.78;;;19.50;99.90;;;;;;5074002;28;20273;-66
2023/06/07 07:01:48;;;;;;;8.73;3.65;;;19.60;99.90;;;;;;5073761;28;20208;-66
2023/06/07 07:04:16;;;;;;;6.07;3.58;;;19.70;99.90;;;;;;5072134;28;20211;-66
2023/06/07 07:06:44;;;;;;;6.10;3.53;;;19.90;99.90;;;;;;5073526;28;20244;-67
2023/06/07 07:09:13;;;;;;;4.53;3.92;;;20.00;99.90;;;;;;5073525;28;20799;-65
2023/06/07 07:11:41;;;;;;;7.72;3.53;;;20.10;99.90;;;;;;5072764;28;20239;-65
2023/06/07 07:14:09;;;;;;;4.15;3.78;;;20.10;99.90;;;;;;5073591;28;20209;-65
2023/06/07 07:16:37;;;;;;;8.85;3.90;;;20.10;99.90;;;;;;5073387;28;20250;-65
2023/06/07 07:19:06;;;;;;;4.97;3.40;;;20.20;99.90;;;;;;5072274;28;20239;-65
2023/06/07 07:21:34;;;;;;;9.20;4.00;;;20.20;99.90;;;;;;5072873;28;20254;-65
2023/06/07 07:24:02;;;;;;;5.43;4.05;;;20.20;99.90;;;;;;5073445;28;20257;-65
2023/06/07 07:26:31;;;;;;;8.00;4.43;;;20.30;99.90;;;;;;5073401;28;20278;-66
2023/06/07 07:28:59;;;;;;;7.57;4.47;;;20.40;99.90;;;;;;5073363;28;20224;-65
2023/06/07 07:31:30;;;;;;;9.13;4.75;;;20.50;99.90;;;;;;5073124;28;20653;-65
2023/06/07 07:33:58;;;;;;;8.70;4.07;;;20.60;99.90;;;;;;5073392;28;20208;-65
2023/06/07 07:36:26;;;;;;;7.15;4.43;;;20.60;99.90;;;;;;5073233;28;20201;-65
2023/06/07 07:38:59;;;;;;;5.35;4.43;;;20.70;99.90;;;;;;5073197;28;20267;-65
2023/06/07 07:41:27;;;;;;;10.90;4.28;;;20.70;99.90;;;;;;5073296;28;20670;-65
2023/06/07 07:43:56;;;;;;;6.32;4.10;;;20.80;99.90;;;;;;5072744;28;20581;-65
2023/06/07 07:46:24;;;;;;;11.70;4.55;;;20.90;99.90;;;;;;5072509;28;20232;-65
2023/06/07 07:48:52;;;;;;;8.77;4.32;;;20.90;99.90;;;;;;5072935;28;20335;-65
2023/06/07 07:51:20;;;;;;;5.53;4.32;;;21.00;99.90;;;;;;5073203;28;20200;-65
2023/06/07 07:53:48;;;;;;;14.50;4.32;;;21.10;99.90;;;;;;5072890;28;20246;-65
2023/06/07 07:56:16;;;;;;;6.85;4.13;;;21.20;99.90;;;;;;5072678;28;20558;-65
2023/06/07 07:58:45;;;;;;;9.50;4.30;;;21.30;99.90;;;;;;5072631;28;20228;-65
2023/06/07 08:01:16;;;;;;;6.72;4.35;;;21.40;99.90;;;;;;5073052;28;20619;-65
2023/06/07 08:03:44;;;;;;;10.40;4.47;;;21.50;99.90;;;;;;5072706;28;20684;-65
2023/06/07 08:06:13;;;;;;;9.60;4.20;;;21.60;99.90;;;;;;5072275;28;20776;-65
2023/06/07 08:08:40;;;;;;;7.53;4.25;;;21.60;99.90;;;;;;5072622;28;20287;-66
2023/06/07 08:11:08;;;;;;;7.25;3.97;;;21.80;99.90;;;;;;5072577;28;20204;-65
2023/06/07 08:13:36;;;;;;;6.25;3.97;;;21.80;99.90;;;;;;5072487;28;20684;-65
2023/06/07 08:16:05;;;;;;;6.97;3.80;;;21.90;99.90;;;;;;5072470;28;20255;-65
2023/06/07 08:18:34;;;;;;;5.78;4.10;;;22.00;99.90;;;;;;5072452;28;20228;-65
2023/06/07 08:21:02;;;;;;;9.32;4.10;;;22.10;99.90;;;;;;5072620;28;20233;-65
2023/06/07 08:23:30;;;;;;;7.20;4.30;;;22.10;99.90;;;;;;5072207;28;20211;-65
2023/06/07 08:25:59;;;;;;;4.10;3.78;;;22.30;99.90;;;;;;5072324;28;20250;-65
2023/06/07 08:28:27;;;;;;;5.82;4.53;;;22.40;99.90;;;;;;5072730;28;20326;-65
2023/06/07 08:30:55;;;;;;;5.43;3.97;;;22.40;99.90;;;;;;5072973;28;20208;-66
2023/06/07 08:33:24;;;;;;;7.03;4.45;;;22.50;99.90;;;;;;5072921;28;20790;-66
2023/06/07 08:35:54;;;;;;;6.93;4.50;;;22.50;99.90;;;;;;5072236;28;20236;-65
2023/06/07 08:38:22;;;;;;;5.93;4.50;;;22.60;99.90;;;;;;5071900;28;20262;-65
2023/06/07 08:40:50;;;;;;;8.40;4.35;;;22.80;99.90;;;;;;5072243;28;20209;-65
2023/06/07 08:43:18;;;;;;;6.85;3.53;;;23.00;99.90;;;;;;5072290;28;20243;-65
2023/06/07 08:45:45;;;;;;;10.30;4.38;;;23.10;99.90;;;;;;5071817;28;20694;-66
2023/06/07 08:48:13;;;;;;;8.45;4.18;;;23.20;99.90;;;;;;5071772;28;20266;-65
2023/06/07 08:50:42;;;;;;;8.75;4.70;;;23.10;99.90;;;;;;5071788;28;20209;-66
2023/06/07 08:53:14;;;;;;;7.80;3.78;;;23.10;99.90;;;;;;5071933;28;20599;-65
2023/06/07 08:55:42;;;;;;;6.93;4.40;;;23.20;99.90;;;;;;5071772;28;20204;-65
2023/06/07 08:58:10;;;;;;;4.40;4.10;;;23.30;99.90;;;;;;5071937;28;20239;-65
2023/06/07 09:00:38;;;;;;;4.88;4.05;;;23.50;99.90;;;;;;5071990;28;20679;-65
2023/06/07 09:03:06;;;;;;;4.88;4.20;;;23.80;99.90;;;;;;5071670;28;20307;-67
2023/06/07 09:05:34;;;;;;;4.65;4.22;;;23.90;99.90;;;;;;5071699;28;20311;-65
2023/06/07 09:08:03;;;;;;;6.32;4.45;;;23.90;99.90;;;;;;5071878;28;20287;-65
2023/06/07 09:10:32;;;;;;;10.70;4.22;;;23.80;99.90;;;;;;5072006;28;20609;-65
2023/06/07 09:13:00;;;;;;;7.63;4.63;;;23.70;99.90;;;;;;5071963;28;20240;-65
2023/06/07 09:15:28;;;;;;;8.75;3.95;;;23.70;99.90;;;;;;5071430;28;20270;-66
2023/06/07 09:17:59;;;;;;;5.43;4.45;;;23.80;99.90;;;;;;5071489;28;20221;-66
2023/06/07 09:20:28;;;;;;;5.13;4.40;;;24.00;99.90;;;;;;5071545;28;20307;-65
2023/06/07 09:22:58;;;;;;;6.43;4.35;;;24.20;99.90;;;;;;5071739;28;20219;-65
2023/06/07 09:25:27;;;;;;;8.30;4.53;;;24.40;99.90;;;;;;5071343;28;20262;-66
2023/06/07 09:27:56;;;;;;;6.75;3.85;;;24.70;99.90;;;;;;5071327;28;20262;-66
2023/06/07 09:30:24;;;;;;;6.18;4.63;;;25.00;99.90;;;;;;5071491;28;20350;-65
2023/06/07 09:32:53;;;;;;;7.45;4.72;;;25.10;99.90;;;;;;5071729;28;20295;-66
2023/06/07 09:35:21;;;;;;;8.18;4.65;;;25.30;99.90;;;;;;5071494;28;20204;-66
2023/06/07 09:37:51;;;;;;;7.38;4.68;;;25.40;99.90;;;;;;5071622;28;20277;-65
2023/06/07 09:40:19;;;;;;;4.70;4.30;;;25.20;99.90;;;;;;5071533;28;20272;-66
2023/06/07 09:42:58;;;;;;;7.32;4.55;;;25.10;99.90;;;;;;5071368;28;20586;-66
2023/06/07 09:45:26;;;;;;;5.45;4.00;;;25.20;99.90;;;;;;5071398;28;20291;-66
2023/06/07 09:48:04;;;;;;;7.57;4.47;;;25.30;99.90;;;;;;5071449;28;20229;-66
2023/06/07 09:50:33;;;;;;;8.98;4.35;;;25.20;99.90;;;;;;5071716;28;20297;-65
2023/06/07 09:53:01;;;;;;;6.18;3.95;;;25.00;99.90;;;;;;5071214;28;20205;-65
2023/06/07 09:55:30;;;;;;;6.88;4.50;;;24.90;99.90;;;;;;5071243;28;20215;-65
2023/06/07 09:57:59;;;;;;;6.50;4.75;;;24.60;99.90;;;;;;5071466;28;20205;-66
2023/06/07 10:00:28;;;;;;;7.70;4.53;;;24.50;99.90;;;;;;5071297;28;20228;-65
2023/06/07 10:03:05;;;;;;;8.90;4.30;;;24.30;99.90;;;;;;5071400;28;20250;-66
2023/06/07 10:05:34;;;;;;;7.82;4.63;;;24.20;99.90;;;;;;5071121;28;20586;-66
2023/06/07 10:08:02;;;;;;;6.22;5.00;;;24.30;99.90;;;;;;5071927;28;20224;-66
2023/06/07 10:10:30;;;;;;;5.13;4.70;;;24.50;99.90;;;;;;5074888;28;20755;-66
2023/06/07 10:12:58;;;;;;;6.32;4.63;;;24.60;99.90;;;;;;5074787;28;20682;-66
2023/06/07 10:15:29;;;;;;;6.82;4.88;;;24.60;99.90;;;;;;5074765;28;20208;-65
2023/06/07 10:18:00;;;;;;;10.45;4.90;;;24.60;99.90;;;;;;5074603;28;20254;-65
2023/06/07 10:20:30;;;;;;;6.90;4.40;;;24.60;99.90;;;;;;5074643;28;20303;-66
2023/06/07 10:23:01;;;;;;;9.45;4.93;;;24.70;99.90;;;;;;5074777;28;20236;-66
2023/06/07 10:25:31;;;;;;;5.90;4.40;;;24.70;99.90;;;;;;5074436;28;20683;-66
2023/06/07 10:28:09;;;;;;;5.97;4.57;;;24.80;99.90;;;;;;5074406;28;20715;-65
2023/06/07 10:30:40;;;;;;;8.93;4.43;;;24.90;99.90;;;;;;5074459;28;20201;-66
2023/06/07 10:33:08;;;;;;;6.13;4.75;;;25.10;99.90;;;;;;5074002;28;20687;-65
2023/06/07 10:35:36;;;;;;;5.35;4.95;;;25.50;99.90;;;;;;5074374;28;20232;-65
2023/06/07 10:38:04;;;;;;;5.43;4.88;;;25.70;99.90;;;;;;5074310;28;20603;-66
2023/06/07 10:40:32;;;;;;;5.35;4.93;;;25.70;99.90;;;;;;5074554;28;20243;-66
2023/06/07 10:43:00;;;;;;;8.18;5.32;;;25.80;99.90;;;;;;5074228;28;20325;-66
2023/06/07 10:45:28;;;;;;;8.48;5.07;;;26.20;99.90;;;;;;5073886;28;20308;-66
2023/06/07 10:47:57;;;;;;;5.53;5.00;;;26.70;99.90;;;;;;5074186;28;20270;-66
2023/06/07 10:50:47;;;;;;;5.70;5.20;;;27.00;99.90;;;;;;5074140;28;20763;-66
2023/06/07 10:53:15;;;;;;;11.88;5.03;;;26.90;99.90;;;;;;5074216;28;20235;-66
2023/06/07 10:55:43;;;;;;;10.35;4.90;;;26.60;99.90;;;;;;5073938;28;20296;-65
2023/06/07 10:58:26;;;;;;;7.78;5.32;;;26.30;99.90;;;;;;5074057;28;20664;-66
2023/06/07 11:00:54;;;;;;;7.22;5.10;;;26.10;99.90;;;;;;5074201;28;20236;-66
2023/06/07 11:03:43;;;;;;;6.57;4.43;;;26.30;99.90;;;;;;5073983;28;20278;-66
2023/06/07 11:06:12;;;;;;;5.80;5.20;;;26.60;99.90;;;;;;5073614;28;20204;-67
2023/06/07 11:08:40;;;;;;;5.22;4.75;;;26.50;99.90;;;;;;5074080;28;20282;-66
2023/06/07 11:11:51;;;;;;;5.85;5.05;;;26.30;99.90;;;;;;5074022;28;20254;-66
2023/06/07 11:14:19;;;;;;;5.57;5.18;;;26.00;99.90;;;;;;5073455;28;20676;-66
2023/06/07 11:16:47;;;;;;;6.75;5.30;;;25.80;99.90;;;;;;5073991;28;20232;-66
2023/06/07 11:19:20;;;;;;;7.38;5.72;;;25.50;99.90;;;;;;5073540;28;20228;-66
2023/06/07 11:22:04;;;;;;;7.60;5.47;;;25.40;99.90;;;;;;5073759;28;20205;-66
2023/06/07 11:24:33;;;;;;;7.93;5.40;;;25.30;99.90;;;;;;5073548;28;20254;-65
2023/06/07 11:27:01;;;;;;;5.05;4.63;;;25.60;99.90;;;;;;5073271;28;20233;-65
2023/06/07 11:29:30;;;;;;;4.75;4.32;;;26.20;99.90;;;;;;5073465;28;20231;-66
2023/06/07 11:32:00;;;;;;;5.78;5.10;;;27.00;99.90;;;;;;5073777;28;20200;-66
2023/06/07 11:34:30;;;;;;;11.65;5.07;;;27.50;99.90;;;;;;5073270;28;20209;-66
2023/06/07 11:37:13;;;;;;;5.05;4.57;;;27.70;99.90;;;;;;5073232;28;20558;-65
2023/06/07 11:39:41;;;;;;;5.45;4.95;;;27.40;99.90;;;;;;5073457;28;20311;-66
2023/06/07 11:42:09;;;;;;;5.60;5.10;;;26.90;99.90;;;;;;5073379;28;20266;-66
2023/06/07 11:44:37;;;;;;;6.95;4.85;;;26.20;99.90;;;;;;5073108;28;20719;-66
2023/06/07 11:47:06;;;;;;;5.40;4.63;;;25.80;99.90;;;;;;5073221;28;20228;-65
2023/06/07 11:49:40;;;;;;;5.20;4.72;;;26.10;99.90;;;;;;5073529;28;20228;-64
2023/06/07 11:52:09;;;;;;;4.47;4.07;;;26.90;99.90;;;;;;5073081;28;20687;-65
2023/06/07 11:54:42;;;;;;;10.70;4.38;;;27.60;99.90;;;;;;5072860;28;20325;-64
2023/06/07 11:57:10;;;;;;;4.93;4.43;;;28.00;99.90;;;;;;5073223;28;20211;-64
2023/06/07 11:59:40;;;;;;;5.97;4.40;;;28.60;99.90;;;;;;5072779;28;20251;-65
2023/06/07 12:02:09;;;;;;;4.97;4.57;;;29.10;99.90;;;;;;5073002;28;20250;-65
2023/06/07 12:04:38;;;;;;;5.00;4.60;;;29.50;99.90;;;;;;5072181;28;20201;-65
2023/06/07 12:07:19;;;;;;;4.57;4.18;;;29.50;99.90;;;;;;5073008;28;20220;-65
2023/06/07 12:09:51;;;;;;;5.65;4.55;;;28.90;99.90;;;;;;5072760;28;20235;-65
2023/06/07 12:12:19;;;;;;;10.13;5.10;;;28.50;99.90;;;;;;5072695;28;20227;-65
2023/06/07 12:14:51;;;;;;;7.35;4.43;;;28.00;99.90;;;;;;5072199;28;20240;-65
2023/06/07 12:17:19;;;;;;;6.22;4.72;;;27.70;99.90;;;;;;5072877;28;20208;-65
2023/06/07 12:19:50;;;;;;;5.32;4.70;;;27.30;99.90;;;;;;5072497;28;20750;-65
2023/06/07 12:22:18;;;;;;;4.47;4.18;;;26.80;99.90;;;;;;5072591;28;20251;-65
2023/06/07 12:24:47;;;;;;;4.25;3.95;;;26.30;99.90;;;;;;5072076;28;20262;-65
2023/06/07 12:27:16;;;;;;;5.03;4.38;;;26.10;99.90;;;;;;5072364;28;20261;-65
2023/06/07 12:29:44;;;;;;;5.63;4.30;;;26.70;99.90;;;;;;5072609;28;20746;-65
2023/06/07 12:32:12;;;;;;;4.47;4.13;;;27.50;99.90;;;;;;5071844;28;20766;-67
2023/06/07 12:34:43;;;;;;;5.63;4.30;;;28.40;99.90;;;;;;5072135;28;20201;-66
2023/06/07 12:37:13;;;;;;;5.28;4.85;;;29.20;99.90;;;;;;5072264;28;20213;-65
2023/06/07 12:39:40;;;;;;;4.30;4.00;;;29.70;99.90;;;;;;5071978;28;20311;-65
2023/06/07 12:42:08;;;;;;;4.80;4.53;;;29.70;99.50;;;;;;5072218;28;20286;-68
2023/06/07 12:44:37;;;;;;;4.35;4.03;;;29.30;99.90;;;;;;5071719;28;20255;-65
2023/06/07 12:47:05;;;;;;;6.55;3.88;;;28.80;99.90;;;;;;5072150;28;20204;-65
2023/06/07 12:49:33;;;;;;;4.75;4.32;;;28.70;99.90;;;;;;5072082;28;20236;-65
2023/06/07 12:52:02;;;;;;;4.65;4.28;;;28.30;99.90;;;;;;5072404;28;20204;-65
2023/06/07 12:54:31;;;;;;;4.53;4.13;;;27.90;99.90;;;;;;5071892;28;20729;-65